Terminal Aerodrome Forecast
Issued by NWS

Home | Current Version | Previous Version | Text Only | Print | Product List | Glossary On
Versions: 1 2 3 4 5 6 7 8 9 10 11 12 13 14 15 16 17
000
FTUS43 KLSX 252300
TAFCPS
TAF
KCPS 252339Z 2600/2624 00000KT P6SM SKC
      TEMPO 2610/2613 5SM BR
     FM261600 13007KT P6SM FEW020
     FM262100 14008KT P6SM SCT030=

USA.gov is the U.S. government's official web portal to all federal, state and local government web resources and services.